sensor_id;sensor_type;location;lat;lon;timestamp;temperature;humidity
20045;DHT22;10183;47.808;9.476;2023-10-19T00:01:15;7.20;99.90
20045;DHT22;10183;47.808;9.476;2023-10-19T00:04:01;7.20;99.90
20045;DHT22;10183;47.808;9.476;2023-10-19T00:06:48;7.20;99.90
20045;DHT22;10183;47.808;9.476;2023-10-19T00:09:34;7.20;99.90
20045;DHT22;10183;47.808;9.476;2023-10-19T00:12:23;7.20;99.90
20045;DHT22;10183;47.808;9.476;2023-10-19T00:15:10;7.30;99.90
20045;DHT22;10183;47.808;9.476;2023-10-19T00:17:58;7.30;99.90
20045;DHT22;10183;47.808;9.476;2023-10-19T00:20:53;7.40;99.90
20045;DHT22;10183;47.808;9.476;2023-10-19T00:23:45;7.50;99.90
20045;DHT22;10183;47.808;9.476;2023-10-19T00:26:35;7.50;99.90
20045;DHT22;10183;47.808;9.476;2023-10-19T00:29:21;7.60;99.90
20045;DHT22;10183;47.808;9.476;2023-10-19T00:32:16;7.50;99.90
20045;DHT22;10183;47.808;9.476;2023-10-19T00:35:04;7.60;99.90
20045;DHT22;10183;47.808;9.476;2023-10-19T00:37:56;7.60;99.90
20045;DHT22;10183;47.808;9.476;2023-10-19T00:40:58;7.70;99.90
20045;DHT22;10183;47.808;9.476;2023-10-19T00:43:57;7.70;99.90
20045;DHT22;10183;47.808;9.476;2023-10-19T00:46:50;7.80;99.90
20045;DHT22;10183;47.808;9.476;2023-10-19T00:49:46;7.80;99.90
20045;DHT22;10183;47.808;9.476;2023-10-19T00:52:34;7.70;99.90
20045;DHT22;10183;47.808;9.476;2023-10-19T00:55:29;7.60;99.90
20045;DHT22;10183;47.808;9.476;2023-10-19T00:58:16;7.60;99.90
20045;DHT22;10183;47.808;9.476;2023-10-19T01:01:08;7.60;99.90
20045;DHT22;10183;47.808;9.476;2023-10-19T01:03:55;7.70;99.90
20045;DHT22;10183;47.808;9.476;2023-10-19T01:06:44;7.70;99.90
20045;DHT22;10183;47.808;9.476;2023-10-19T01:09:44;7.70;99.90
20045;DHT22;10183;47.808;9.476;2023-10-19T01:12:30;7.80;99.90
20045;DHT22;10183;47.808;9.476;2023-10-19T01:15:24;7.80;99.90
20045;DHT22;10183;47.808;9.476;2023-10-19T01:18:13;7.80;99.90
20045;DHT22;10183;47.808;9.476;2023-10-19T01:21:00;7.80;99.90
20045;DHT22;10183;47.808;9.476;2023-10-19T01:23:53;7.80;99.90
20045;DHT22;10183;47.808;9.476;2023-10-19T01:26:39;7.90;99.90
20045;DHT22;10183;47.808;9.476;2023-10-19T01:29:25;7.90;99.90
20045;DHT22;10183;47.808;9.476;2023-10-19T01:32:14;8.00;99.90
20045;DHT22;10183;47.808;9.476;2023-10-19T01:35:01;8.00;99.90
20045;DHT22;10183;47.808;9.476;2023-10-19T01:37:47;8.20;99.90
20045;DHT22;10183;47.808;9.476;2023-10-19T01:40:33;8.20;99.90
20045;DHT22;10183;47.808;9.476;2023-10-19T01:43:19;8.20;99.90
20045;DHT22;10183;47.808;9.476;2023-10-19T01:46:08;8.20;99.90
20045;DHT22;10183;47.808;9.476;2023-10-19T01:49:14;8.30;99.90
20045;DHT22;10183;47.808;9.476;2023-10-19T01:52:00;8.30;99.90
20045;DHT22;10183;47.808;9.476;2023-10-19T01:54:46;8.20;99.90
20045;DHT22;10183;47.808;9.476;2023-10-19T01:57:32;8.20;99.90
20045;DHT22;10183;47.808;9.476;2023-10-19T02:00:18;8.20;99.90
20045;DHT22;10183;47.808;9.476;2023-10-19T02:03:08;8.10;99.90
20045;DHT22;10183;47.808;9.476;2023-10-19T02:05:58;8.20;99.90
20045;DHT22;10183;47.808;9.476;2023-10-19T02:08:55;8.10;99.90
20045;DHT22;10183;47.808;9.476;2023-10-19T02:11:48;8.10;99.90
20045;DHT22;10183;47.808;9.476;2023-10-19T02:14:34;8.10;99.90
20045;DHT22;10183;47.808;9.476;2023-10-19T02:17:20;8.10;99.90
20045;DHT22;10183;47.808;9.476;2023-10-19T02:20:06;8.10;99.90
20045;DHT22;10183;47.808;9.476;2023-10-19T02:22:57;8.10;99.90
20045;DHT22;10183;47.808;9.476;2023-10-19T02:25:43;8.10;99.90
20045;DHT22;10183;47.808;9.476;2023-10-19T02:28:31;8.10;99.90
20045;DHT22;10183;47.808;9.476;2023-10-19T02:31:20;8.10;99.90
20045;DHT22;10183;47.808;9.476;2023-10-19T02:34:08;8.10;99.90
20045;DHT22;10183;47.808;9.476;2023-10-19T02:36:57;8.10;99.90
20045;DHT22;10183;47.808;9.476;2023-10-19T02:39:43;8.10;99.90
20045;DHT22;10183;47.808;9.476;2023-10-19T02:42:29;8.20;99.90
20045;DHT22;10183;47.808;9.476;2023-10-19T02:45:17;8.20;99.90
20045;DHT22;10183;47.808;9.476;2023-10-19T02:48:04;8.40;99.90
20045;DHT22;10183;47.808;9.476;2023-10-19T02:50:50;8.40;99.90
20045;DHT22;10183;47.808;9.476;2023-10-19T02:53:37;8.50;99.90
20045;DHT22;10183;47.808;9.476;2023-10-19T02:56:23;8.60;99.90
20045;DHT22;10183;47.808;9.476;2023-10-19T02:59:11;8.50;99.90
20045;DHT22;10183;47.808;9.476;2023-10-19T03:02:00;8.50;99.90
20045;DHT22;10183;47.808;9.476;2023-10-19T03:04:58;8.40;99.90
20045;DHT22;10183;47.808;9.476;2023-10-19T03:07:44;8.30;99.90
20045;DHT22;10183;47.808;9.476;2023-10-19T03:10:31;8.30;99.90
20045;DHT22;10183;47.808;9.476;2023-10-19T03:13:28;8.40;99.90
20045;DHT22;10183;47.808;9.476;2023-10-19T03:16:14;8.40;99.90
20045;DHT22;10183;47.808;9.476;2023-10-19T03:19:01;8.40;99.90
20045;DHT22;10183;47.808;9.476;2023-10-19T03:21:47;8.50;99.90
20045;DHT22;10183;47.808;9.476;2023-10-19T03:24:36;8.50;99.90
20045;DHT22;10183;47.808;9.476;2023-10-19T03:27:23;8.50;99.90
20045;DHT22;10183;47.808;9.476;2023-10-19T03:30:10;8.50;99.90
20045;DHT22;10183;47.808;9.476;2023-10-19T03:33:01;8.50;99.90
20045;DHT22;10183;47.808;9.476;2023-10-19T03:35:47;8.60;99.90
20045;DHT22;10183;47.808;9.476;2023-10-19T03:38:33;8.70;99.90
20045;DHT22;10183;47.808;9.476;2023-10-19T03:41:20;8.70;99.90
20045;DHT22;10183;47.808;9.476;2023-10-19T03:44:10;8.70;99.90
20045;DHT22;10183;47.808;9.476;2023-10-19T03:47:08;8.70;99.90
20045;DHT22;10183;47.808;9.476;2023-10-19T03:50:00;8.70;99.90
20045;DHT22;10183;47.808;9.476;2023-10-19T03:52:46;8.80;99.90
20045;DHT22;10183;47.808;9.476;2023-10-19T03:55:32;8.80;99.90
20045;DHT22;10183;47.808;9.476;2023-10-19T03:58:23;8.80;99.90
20045;DHT22;10183;47.808;9.476;2023-10-19T04:01:09;8.80;99.90
20045;DHT22;10183;47.808;9.476;2023-10-19T04:03:56;8.80;99.90
20045;DHT22;10183;47.808;9.476;2023-10-19T04:06:43;8.80;99.90
20045;DHT22;10183;47.808;9.476;2023-10-19T04:09:33;8.80;99.90
20045;DHT22;10183;47.808;9.476;2023-10-19T04:12:19;8.70;99.90
20045;DHT22;10183;47.808;9.476;2023-10-19T04:15:08;8.70;99.90
20045;DHT22;10183;47.808;9.476;2023-10-19T04:18:04;8.70;99.90
20045;DHT22;10183;47.808;9.476;2023-10-19T04:20:56;8.70;99.90
20045;DHT22;10183;47.808;9.476;2023-10-19T04:23:43;8.70;99.90
20045;DHT22;10183;47.808;9.476;2023-10-19T04:26:32;8.60;99.90
20045;DHT22;10183;47.808;9.476;2023-10-19T04:29:22;8.60;99.90
20045;DHT22;10183;47.808;9.476;2023-10-19T04:32:13;8.60;99.90
20045;DHT22;10183;47.808;9.476;2023-10-19T04:35:00;8.70;99.90
20045;DHT22;10183;47.808;9.476;2023-10-19T04:37:46;8.80;99.90
20045;DHT22;10183;47.808;9.476;2023-10-19T04:40:32;8.80;99.90
20045;DHT22;10183;47.808;9.476;2023-10-19T04:43:18;8.80;99.90
20045;DHT22;10183;47.808;9.476;2023-10-19T04:46:09;8.80;99.90
20045;DHT22;10183;47.808;9.476;2023-10-19T04:48:58;8.70;99.90
20045;DHT22;10183;47.808;9.476;2023-10-19T04:51:45;8.70;99.90
20045;DHT22;10183;47.808;9.476;2023-10-19T04:54:31;8.70;99.90
20045;DHT22;10183;47.808;9.476;2023-10-19T04:57:17;8.70;99.90
20045;DHT22;10183;47.808;9.476;2023-10-19T05:00:03;8.70;99.90
20045;DHT22;10183;47.808;9.476;2023-10-19T05:02:49;8.70;99.90
20045;DHT22;10183;47.808;9.476;2023-10-19T05:05:37;8.60;99.90
20045;DHT22;10183;47.808;9.476;2023-10-19T05:08:25;8.60;99.90
20045;DHT22;10183;47.808;9.476;2023-10-19T05:11:11;8.50;99.90
20045;DHT22;10183;47.808;9.476;2023-10-19T05:13:57;8.50;99.90
20045;DHT22;10183;47.808;9.476;2023-10-19T05:16:43;8.50;99.90
20045;DHT22;10183;47.808;9.476;2023-10-19T05:19:28;8.50;99.90
20045;DHT22;10183;47.808;9.476;2023-10-19T05:22:14;8.60;99.90
20045;DHT22;10183;47.808;9.476;2023-10-19T05:25:02;8.50;99.90
20045;DHT22;10183;47.808;9.476;2023-10-19T05:27:49;8.70;99.90
20045;DHT22;10183;47.808;9.476;2023-10-19T05:30:35;8.80;99.90
20045;DHT22;10183;47.808;9.476;2023-10-19T05:33:21;9.00;99.90
20045;DHT22;10183;47.808;9.476;2023-10-19T05:36:09;9.10;99.90
20045;DHT22;10183;47.808;9.476;2023-10-19T05:38:55;9.10;99.90
20045;DHT22;10183;47.808;9.476;2023-10-19T05:41:41;9.20;99.90
20045;DHT22;10183;47.808;9.476;2023-10-19T05:44:29;9.30;99.90
20045;DHT22;10183;47.808;9.476;2023-10-19T05:47:16;9.40;99.90
20045;DHT22;10183;47.808;9.476;2023-10-19T05:50:02;9.30;99.90
20045;DHT22;10183;47.808;9.476;2023-10-19T05:52:48;9.40;99.90
20045;DHT22;10183;47.808;9.476;2023-10-19T05:55:34;9.70;99.90
20045;DHT22;10183;47.808;9.476;2023-10-19T05:58:21;9.90;99.90
20045;DHT22;10183;47.808;9.476;2023-10-19T06:01:07;10.10;99.90
20045;DHT22;10183;47.808;9.476;2023-10-19T06:03:53;10.30;99.90
20045;DHT22;10183;47.808;9.476;2023-10-19T06:06:39;10.40;99.90
20045;DHT22;10183;47.808;9.476;2023-10-19T06:09:25;10.60;99.90
20045;DHT22;10183;47.808;9.476;2023-10-19T06:12:15;10.80;99.90
20045;DHT22;10183;47.808;9.476;2023-10-19T06:15:01;10.90;99.90
20045;DHT22;10183;47.808;9.476;2023-10-19T06:17:47;10.90;99.90
20045;DHT22;10183;47.808;9.476;2023-10-19T06:20:33;10.90;99.90
20045;DHT22;10183;47.808;9.476;2023-10-19T06:23:19;10.90;99.90
20045;DHT22;10183;47.808;9.476;2023-10-19T06:26:09;10.90;99.90
20045;DHT22;10183;47.808;9.476;2023-10-19T06:28:57;10.80;99.90
20045;DHT22;10183;47.808;9.476;2023-10-19T06:31:44;10.80;99.90
20045;DHT22;10183;47.808;9.476;2023-10-19T06:34:31;10.70;99.90
20045;DHT22;10183;47.808;9.476;2023-10-19T06:37:17;10.70;99.90
20045;DHT22;10183;47.808;9.476;2023-10-19T06:40:04;10.60;99.90
20045;DHT22;10183;47.808;9.476;2023-10-19T06:42:55;10.60;99.90
20045;DHT22;10183;47.808;9.476;2023-10-19T06:45:44;10.50;99.90
20045;DHT22;10183;47.808;9.476;2023-10-19T06:48:31;10.40;99.90
20045;DHT22;10183;47.808;9.476;2023-10-19T06:51:17;10.20;99.90
20045;DHT22;10183;47.808;9.476;2023-10-19T06:54:03;10.10;99.90
20045;DHT22;10183;47.808;9.476;2023-10-19T06:56:49;10.00;99.90
20045;DHT22;10183;47.808;9.476;2023-10-19T06:59:36;10.10;99.90
20045;DHT22;10183;47.808;9.476;2023-10-19T07:02:22;10.10;99.90
20045;DHT22;10183;47.808;9.476;2023-10-19T07:05:08;10.10;99.90
20045;DHT22;10183;47.808;9.476;2023-10-19T07:07:58;10.20;99.90
20045;DHT22;10183;47.808;9.476;2023-10-19T07:10:45;10.30;99.90
20045;DHT22;10183;47.808;9.476;2023-10-19T07:13:31;10.30;99.90
20045;DHT22;10183;47.808;9.476;2023-10-19T07:16:18;10.30;99.90
20045;DHT22;10183;47.808;9.476;2023-10-19T07:19:05;10.30;99.90
20045;DHT22;10183;47.808;9.476;2023-10-19T07:21:51;10.20;99.90
20045;DHT22;10183;47.808;9.476;2023-10-19T07:24:43;10.20;99.90
20045;DHT22;10183;47.808;9.476;2023-10-19T07:27:29;10.20;99.90
20045;DHT22;10183;47.808;9.476;2023-10-19T07:30:19;10.20;99.90
20045;DHT22;10183;47.808;9.476;2023-10-19T07:33:12;10.30;99.90
20045;DHT22;10183;47.808;9.476;2023-10-19T07:36:12;10.50;99.90
20045;DHT22;10183;47.808;9.476;2023-10-19T07:38:59;10.70;99.90
20045;DHT22;10183;47.808;9.476;2023-10-19T07:41:46;10.90;99.90
20045;DHT22;10183;47.808;9.476;2023-10-19T07:44:32;11.10;99.90
20045;DHT22;10183;47.808;9.476;2023-10-19T07:47:18;11.20;99.90
20045;DHT22;10183;47.808;9.476;2023-10-19T07:50:04;11.30;99.90
20045;DHT22;10183;47.808;9.476;2023-10-19T07:52:52;11.30;99.90
20045;DHT22;10183;47.808;9.476;2023-10-19T07:55:39;11.40;99.90
20045;DHT22;10183;47.808;9.476;2023-10-19T07:58:25;11.40;99.90
20045;DHT22;10183;47.808;9.476;2023-10-19T08:01:12;11.40;99.90
20045;DHT22;10183;47.808;9.476;2023-10-19T08:03:58;11.40;99.90
20045;DHT22;10183;47.808;9.476;2023-10-19T08:06:44;11.40;99.90
20045;DHT22;10183;47.808;9.476;2023-10-19T08:09:30;11.50;99.90
20045;DHT22;10183;47.808;9.476;2023-10-19T08:12:21;11.50;99.90
20045;DHT22;10183;47.808;9.476;2023-10-19T08:15:11;11.40;99.90
20045;DHT22;10183;47.808;9.476;2023-10-19T08:17:58;11.40;99.90
20045;DHT22;10183;47.808;9.476;2023-10-19T08:20:45;11.50;99.90
20045;DHT22;10183;47.808;9.476;2023-10-19T08:23:31;11.50;99.90
20045;DHT22;10183;47.808;9.476;2023-10-19T08:26:17;11.50;99.90
20045;DHT22;10183;47.808;9.476;2023-10-19T08:29:03;11.50;99.90
20045;DHT22;10183;47.808;9.476;2023-10-19T08:31:57;11.40;99.90
20045;DHT22;10183;47.808;9.476;2023-10-19T08:34:43;11.40;99.90
20045;DHT22;10183;47.808;9.476;2023-10-19T08:37:29;11.30;99.90
20045;DHT22;10183;47.808;9.476;2023-10-19T08:40:15;11.30;99.90
20045;DHT22;10183;47.808;9.476;2023-10-19T08:43:03;11.20;99.90
20045;DHT22;10183;47.808;9.476;2023-10-19T08:45:50;11.20;99.90
20045;DHT22;10183;47.808;9.476;2023-10-19T08:48:37;11.20;99.90
20045;DHT22;10183;47.808;9.476;2023-10-19T08:51:23;11.30;99.90
20045;DHT22;10183;47.808;9.476;2023-10-19T08:54:14;11.30;99.90
20045;DHT22;10183;47.808;9.476;2023-10-19T08:57:00;11.40;99.90
20045;DHT22;10183;47.808;9.476;2023-10-19T08:59:46;11.50;99.90
20045;DHT22;10183;47.808;9.476;2023-10-19T09:02:32;11.70;99.90
20045;DHT22;10183;47.808;9.476;2023-10-19T09:05:21;11.90;99.90
20045;DHT22;10183;47.808;9.476;2023-10-19T09:08:08;12.00;99.90
20045;DHT22;10183;47.808;9.476;2023-10-19T09:10:55;12.00;99.90
20045;DHT22;10183;47.808;9.476;2023-10-19T09:13:43;12.10;99.90
20045;DHT22;10183;47.808;9.476;2023-10-19T09:16:32;12.20;99.90
20045;DHT22;10183;47.808;9.476;2023-10-19T09:19:19;12.20;99.90
20045;DHT22;10183;47.808;9.476;2023-10-19T09:22:06;12.10;99.90
20045;DHT22;10183;47.808;9.476;2023-10-19T09:25:05;12.20;99.90
20045;DHT22;10183;47.808;9.476;2023-10-19T09:27:52;12.30;99.90
20045;DHT22;10183;47.808;9.476;2023-10-19T09:30:38;12.30;99.90
20045;DHT22;10183;47.808;9.476;2023-10-19T09:33:25;12.40;99.90
20045;DHT22;10183;47.808;9.476;2023-10-19T09:36:13;12.50;99.90
20045;DHT22;10183;47.808;9.476;2023-10-19T09:38:59;12.60;99.90
20045;DHT22;10183;47.808;9.476;2023-10-19T09:41:46;12.90;99.90
20045;DHT22;10183;47.808;9.476;2023-10-19T09:44:41;13.20;99.90
20045;DHT22;10183;47.808;9.476;2023-10-19T09:47:30;13.20;99.90
20045;DHT22;10183;47.808;9.476;2023-10-19T09:50:21;13.40;99.90
20045;DHT22;10183;47.808;9.476;2023-10-19T09:53:07;13.50;99.90
20045;DHT22;10183;47.808;9.476;2023-10-19T09:56:02;13.30;99.90
20045;DHT22;10183;47.808;9.476;2023-10-19T09:58:55;13.40;99.90
20045;DHT22;10183;47.808;9.476;2023-10-19T10:02:12;14.00;99.90
20045;DHT22;10183;47.808;9.476;2023-10-19T10:05:00;14.70;99.90
20045;DHT22;10183;47.808;9.476;2023-10-19T10:07:47;14.90;99.90
20045;DHT22;10183;47.808;9.476;2023-10-19T10:10:33;15.40;99.90
20045;DHT22;10183;47.808;9.476;2023-10-19T10:16:17;15.60;99.90
20045;DHT22;10183;47.808;9.476;2023-10-19T10:19:04;15.00;99.90
20045;DHT22;10183;47.808;9.476;2023-10-19T10:22:10;14.90;99.90
20045;DHT22;10183;47.808;9.476;2023-10-19T10:25:06;15.40;99.90
20045;DHT22;10183;47.808;9.476;2023-10-19T10:27:53;15.20;99.90
20045;DHT22;10183;47.808;9.476;2023-10-19T10:34:01;15.90;99.90
20045;DHT22;10183;47.808;9.476;2023-10-19T10:37:05;16.40;99.90
20045;DHT22;10183;47.808;9.476;2023-10-19T10:39:59;16.90;99.90
20045;DHT22;10183;47.808;9.476;2023-10-19T10:42:45;17.50;99.90
20045;DHT22;10183;47.808;9.476;2023-10-19T10:45:31;18.30;99.90
20045;DHT22;10183;47.808;9.476;2023-10-19T10:48:18;18.40;99.90
20045;DHT22;10183;47.808;9.476;2023-10-19T10:51:15;18.30;99.90
20045;DHT22;10183;47.808;9.476;2023-10-19T10:54:01;18.20;99.90
20045;DHT22;10183;47.808;9.476;2023-10-19T10:56:47;17.50;99.90
20045;DHT22;10183;47.808;9.476;2023-10-19T10:59:35;17.10;99.90
20045;DHT22;10183;47.808;9.476;2023-10-19T11:02:21;16.30;99.90
20045;DHT22;10183;47.808;9.476;2023-10-19T11:05:08;16.30;99.90
20045;DHT22;10183;47.808;9.476;2023-10-19T11:08:06;17.20;99.90
20045;DHT22;10183;47.808;9.476;2023-10-19T11:10:52;18.10;99.90
20045;DHT22;10183;47.808;9.476;2023-10-19T11:13:39;18.30;99.90
20045;DHT22;10183;47.808;9.476;2023-10-19T11:16:25;17.80;99.90
20045;DHT22;10183;47.808;9.476;2023-10-19T11:19:11;18.70;99.90
20045;DHT22;10183;47.808;9.476;2023-10-19T11:21:57;19.40;99.90
20045;DHT22;10183;47.808;9.476;2023-10-19T11:24:45;20.40;99.90
20045;DHT22;10183;47.808;9.476;2023-10-19T11:27:31;21.50;99.90
20045;DHT22;10183;47.808;9.476;2023-10-19T11:30:30;24.10;99.90
20045;DHT22;10183;47.808;9.476;2023-10-19T11:33:19;24.90;99.90
20045;DHT22;10183;47.808;9.476;2023-10-19T11:36:11;26.80;97.70
20045;DHT22;10183;47.808;9.476;2023-10-19T11:38:57;28.10;83.10
20045;DHT22;10183;47.808;9.476;2023-10-19T11:41:43;29.00;45.00
20045;DHT22;10183;47.808;9.476;2023-10-19T11:44:29;29.30;48.50
20045;DHT22;10183;47.808;9.476;2023-10-19T11:47:15;30.10;28.90
20045;DHT22;10183;47.808;9.476;2023-10-19T11:50:01;30.20;9.60
20045;DHT22;10183;47.808;9.476;2023-10-19T11:52:47;28.60;72.40
20045;DHT22;10183;47.808;9.476;2023-10-19T11:55:33;29.50;37.10
20045;DHT22;10183;47.808;9.476;2023-10-19T11:58:19;31.00;9.10
20045;DHT22;10183;47.808;9.476;2023-10-19T12:01:06;30.70;1.00
20045;DHT22;10183;47.808;9.476;2023-10-19T12:03:57;27.00;71.90
20045;DHT22;10183;47.808;9.476;2023-10-19T12:06:44;22.50;99.90
20045;DHT22;10183;47.808;9.476;2023-10-19T12:09:31;21.40;99.90
20045;DHT22;10183;47.808;9.476;2023-10-19T12:12:18;21.40;99.90
20045;DHT22;10183;47.808;9.476;2023-10-19T12:15:05;22.20;99.90
20045;DHT22;10183;47.808;9.476;2023-10-19T12:17:51;22.50;99.90
20045;DHT22;10183;47.808;9.476;2023-10-19T12:20:38;21.00;99.90
20045;DHT22;10183;47.808;9.476;2023-10-19T12:23:25;20.00;99.90
20045;DHT22;10183;47.808;9.476;2023-10-19T12:26:11;19.10;99.90
20045;DHT22;10183;47.808;9.476;2023-10-19T12:28:57;19.10;99.90
20045;DHT22;10183;47.808;9.476;2023-10-19T12:31:43;18.80;99.90
20045;DHT22;10183;47.808;9.476;2023-10-19T12:34:29;19.10;99.90
20045;DHT22;10183;47.808;9.476;2023-10-19T12:37:15;19.10;99.90
20045;DHT22;10183;47.808;9.476;2023-10-19T12:40:04;19.10;99.90
20045;DHT22;10183;47.808;9.476;2023-10-19T12:43:10;18.90;99.90
20045;DHT22;10183;47.808;9.476;2023-10-19T12:45:58;18.70;99.90
20045;DHT22;10183;47.808;9.476;2023-10-19T12:48:44;18.70;99.90
20045;DHT22;10183;47.808;9.476;2023-10-19T12:51:32;19.90;99.90
20045;DHT22;10183;47.808;9.476;2023-10-19T12:54:18;20.50;99.90
20045;DHT22;10183;47.808;9.476;2023-10-19T12:57:04;21.00;99.90
20045;DHT22;10183;47.808;9.476;2023-10-19T12:59:53;21.10;99.90
20045;DHT22;10183;47.808;9.476;2023-10-19T13:02:39;21.50;99.90
20045;DHT22;10183;47.808;9.476;2023-10-19T13:05:26;21.10;99.90
20045;DHT22;10183;47.808;9.476;2023-10-19T13:08:12;20.30;99.90
20045;DHT22;10183;47.808;9.476;2023-10-19T13:11:01;19.40;99.90
20045;DHT22;10183;47.808;9.476;2023-10-19T13:13:47;19.10;99.90
20045;DHT22;10183;47.808;9.476;2023-10-19T13:16:33;19.10;99.90
20045;DHT22;10183;47.808;9.476;2023-10-19T13:19:21;19.50;99.90
20045;DHT22;10183;47.808;9.476;2023-10-19T13:22:11;19.80;99.90
20045;DHT22;10183;47.808;9.476;2023-10-19T13:25:00;21.10;99.90
20045;DHT22;10183;47.808;9.476;2023-10-19T13:27:46;22.20;99.90
20045;DHT22;10183;47.808;9.476;2023-10-19T13:30:36;22.60;99.90
20045;DHT22;10183;47.808;9.476;2023-10-19T13:33:22;20.60;99.90
20045;DHT22;10183;47.808;9.476;2023-10-19T13:36:09;19.50;99.90
20045;DHT22;10183;47.808;9.476;2023-10-19T13:38:55;19.20;99.90
20045;DHT22;10183;47.808;9.476;2023-10-19T13:41:41;19.00;99.90
20045;DHT22;10183;47.808;9.476;2023-10-19T13:44:27;19.10;99.90
20045;DHT22;10183;47.808;9.476;2023-10-19T13:47:14;18.80;99.90
20045;DHT22;10183;47.808;9.476;2023-10-19T13:50:01;18.40;99.90
20045;DHT22;10183;47.808;9.476;2023-10-19T13:52:47;18.20;99.90
20045;DHT22;10183;47.808;9.476;2023-10-19T13:55:35;17.90;99.90
20045;DHT22;10183;47.808;9.476;2023-10-19T13:58:22;18.00;99.90
20045;DHT22;10183;47.808;9.476;2023-10-19T14:01:09;17.80;99.90
20045;DHT22;10183;47.808;9.476;2023-10-19T14:03:55;18.30;99.90
20045;DHT22;10183;47.808;9.476;2023-10-19T14:06:42;18.50;99.90
20045;DHT22;10183;47.808;9.476;2023-10-19T14:09:29;18.30;99.90
20045;DHT22;10183;47.808;9.476;2023-10-19T14:12:17;19.00;99.90
20045;DHT22;10183;47.808;9.476;2023-10-19T14:15:03;19.80;99.90
20045;DHT22;10183;47.808;9.476;2023-10-19T14:17:49;19.70;99.90
20045;DHT22;10183;47.808;9.476;2023-10-19T14:20:35;20.10;99.90
20045;DHT22;10183;47.808;9.476;2023-10-19T14:23:24;20.20;99.90
20045;DHT22;10183;47.808;9.476;2023-10-19T14:26:10;21.50;99.90
20045;DHT22;10183;47.808;9.476;2023-10-19T14:28:57;21.80;99.90
20045;DHT22;10183;47.808;9.476;2023-10-19T14:31:43;23.30;99.90
20045;DHT22;10183;47.808;9.476;2023-10-19T14:34:29;25.00;99.90
20045;DHT22;10183;47.808;9.476;2023-10-19T14:37:22;23.90;99.90
20045;DHT22;10183;47.808;9.476;2023-10-19T14:42:56;21.30;99.90
20045;DHT22;10183;47.808;9.476;2023-10-19T14:45:42;21.70;99.90
20045;DHT22;10183;47.808;9.476;2023-10-19T14:48:29;21.60;99.90
20045;DHT22;10183;47.808;9.476;2023-10-19T14:51:15;21.50;99.90
20045;DHT22;10183;47.808;9.476;2023-10-19T14:54:00;21.20;99.90
20045;DHT22;10183;47.808;9.476;2023-10-19T14:56:46;21.00;99.90
20045;DHT22;10183;47.808;9.476;2023-10-19T14:59:32;20.80;99.90
20045;DHT22;10183;47.808;9.476;2023-10-19T15:02:21;20.70;99.90
20045;DHT22;10183;47.808;9.476;2023-10-19T15:05:09;20.20;99.90
20045;DHT22;10183;47.808;9.476;2023-10-19T15:07:58;20.00;99.90
20045;DHT22;10183;47.808;9.476;2023-10-19T15:10:44;19.80;99.90
20045;DHT22;10183;47.808;9.476;2023-10-19T15:13:30;19.80;99.90
20045;DHT22;10183;47.808;9.476;2023-10-19T15:16:16;20.10;99.90
20045;DHT22;10183;47.808;9.476;2023-10-19T15:19:03;20.60;99.90
20045;DHT22;10183;47.808;9.476;2023-10-19T15:21:49;20.90;99.90
20045;DHT22;10183;47.808;9.476;2023-10-19T15:24:35;20.90;99.90
20045;DHT22;10183;47.808;9.476;2023-10-19T15:27:21;20.40;99.90
20045;DHT22;10183;47.808;9.476;2023-10-19T15:30:09;20.30;99.90
20045;DHT22;10183;47.808;9.476;2023-10-19T15:32:57;19.70;99.90
20045;DHT22;10183;47.808;9.476;2023-10-19T15:35:43;19.00;99.90
20045;DHT22;10183;47.808;9.476;2023-10-19T15:38:29;18.50;99.90
20045;DHT22;10183;47.808;9.476;2023-10-19T15:41:15;18.00;99.90
20045;DHT22;10183;47.808;9.476;2023-10-19T15:44:01;17.50;99.90
20045;DHT22;10183;47.808;9.476;2023-10-19T15:46:47;17.10;99.90
20045;DHT22;10183;47.808;9.476;2023-10-19T15:49:34;16.90;99.90
20045;DHT22;10183;47.808;9.476;2023-10-19T15:52:25;16.60;99.90
20045;DHT22;10183;47.808;9.476;2023-10-19T15:55:12;16.30;99.90
20045;DHT22;10183;47.808;9.476;2023-10-19T15:57:58;16.10;99.90
20045;DHT22;10183;47.808;9.476;2023-10-19T16:00:44;15.90;99.90
20045;DHT22;10183;47.808;9.476;2023-10-19T16:03:30;15.70;99.90
20045;DHT22;10183;47.808;9.476;2023-10-19T16:06:16;15.50;99.90
20045;DHT22;10183;47.808;9.476;2023-10-19T16:09:02;15.30;99.90
20045;DHT22;10183;47.808;9.476;2023-10-19T16:11:50;15.10;99.90
20045;DHT22;10183;47.808;9.476;2023-10-19T16:14:38;14.90;99.90
20045;DHT22;10183;47.808;9.476;2023-10-19T16:17:25;14.80;99.90
20045;DHT22;10183;47.808;9.476;2023-10-19T16:20:11;14.70;99.90
20045;DHT22;10183;47.808;9.476;2023-10-19T16:23:00;14.60;99.90
20045;DHT22;10183;47.808;9.476;2023-10-19T16:25:46;14.60;99.90
20045;DHT22;10183;47.808;9.476;2023-10-19T16:28:32;14.50;99.90
20045;DHT22;10183;47.808;9.476;2023-10-19T16:31:18;14.40;99.90
20045;DHT22;10183;47.808;9.476;2023-10-19T16:34:04;14.40;99.90
20045;DHT22;10183;47.808;9.476;2023-10-19T16:36:51;14.40;99.90
20045;DHT22;10183;47.808;9.476;2023-10-19T16:39:37;14.40;99.90
20045;DHT22;10183;47.808;9.476;2023-10-19T16:42:23;14.50;99.90
20045;DHT22;10183;47.808;9.476;2023-10-19T16:45:09;14.50;99.90
20045;DHT22;10183;47.808;9.476;2023-10-19T16:47:58;14.50;99.90
20045;DHT22;10183;47.808;9.476;2023-10-19T16:50:44;14.40;99.90
20045;DHT22;10183;47.808;9.476;2023-10-19T16:53:31;14.30;99.90
20045;DHT22;10183;47.808;9.476;2023-10-19T16:56:17;14.30;99.90
20045;DHT22;10183;47.808;9.476;2023-10-19T16:59:03;14.30;99.90
20045;DHT22;10183;47.808;9.476;2023-10-19T17:01:52;14.30;99.90
20045;DHT22;10183;47.808;9.476;2023-10-19T17:04:38;14.30;99.90
20045;DHT22;10183;47.808;9.476;2023-10-19T17:07:26;14.30;99.90
20045;DHT22;10183;47.808;9.476;2023-10-19T17:10:13;14.30;99.90
20045;DHT22;10183;47.808;9.476;2023-10-19T17:13:00;14.40;99.90
20045;DHT22;10183;47.808;9.476;2023-10-19T17:15:46;14.40;99.90
20045;DHT22;10183;47.808;9.476;2023-10-19T17:18:32;14.40;99.90
20045;DHT22;10183;47.808;9.476;2023-10-19T17:21:19;14.50;99.90
20045;DHT22;10183;47.808;9.476;2023-10-19T17:24:06;14.50;99.90
20045;DHT22;10183;47.808;9.476;2023-10-19T17:26:52;14.40;99.90
20045;DHT22;10183;47.808;9.476;2023-10-19T17:29:38;14.20;99.90
20045;DHT22;10183;47.808;9.476;2023-10-19T17:32:24;14.10;99.90
20045;DHT22;10183;47.808;9.476;2023-10-19T17:35:10;14.20;99.90
20045;DHT22;10183;47.808;9.476;2023-10-19T17:37:56;14.10;99.90
20045;DHT22;10183;47.808;9.476;2023-10-19T17:40:44;14.00;99.90
20045;DHT22;10183;47.808;9.476;2023-10-19T17:43:30;14.00;99.90
20045;DHT22;10183;47.808;9.476;2023-10-19T17:46:16;14.10;99.90
20045;DHT22;10183;47.808;9.476;2023-10-19T17:49:02;14.10;99.90
20045;DHT22;10183;47.808;9.476;2023-10-19T17:51:48;14.10;99.90
20045;DHT22;10183;47.808;9.476;2023-10-19T17:54:34;14.10;99.90